createdAt,value
2023-07-08T00:00:22.876Z,50.21
2023-07-08T00:01:22.763Z,50.21
2023-07-08T00:02:22.686Z,50.31
2023-07-08T00:03:22.646Z,50.21
2023-07-08T00:04:22.596Z,50.02
2023-07-08T00:05:22.519Z,50.31
2023-07-08T00:06:22.451Z,50.02
2023-07-08T00:07:22.351Z,50.21
2023-07-08T00:08:22.287Z,50.31
2023-07-08T00:09:22.312Z,50.31
2023-07-08T00:10:22.196Z,50.02
2023-07-08T00:11:22.115Z,50.31
2023-07-08T00:12:22.069Z,50.21
2023-07-08T00:13:22.023Z,49.92
2023-07-08T00:14:21.961Z,50.28
2023-07-08T00:15:21.858Z,49.99
2023-07-08T00:16:21.871Z,50.09
2023-07-08T00:17:21.811Z,50.38
2023-07-08T00:18:21.755Z,50.18
2023-07-08T00:19:21.634Z,49.99
2023-07-08T00:20:21.590Z,50.18
2023-07-08T00:21:21.507Z,50.38
2023-07-08T00:22:21.450Z,50.09
2023-07-08T00:23:21.388Z,50.28
2023-07-08T00:24:21.330Z,50.38
2023-07-08T00:25:21.266Z,49.99
2023-07-08T00:26:21.220Z,50.38
2023-07-08T00:27:21.144Z,50.38
2023-07-08T00:28:21.145Z,49.99
2023-07-08T00:29:21.049Z,50.38
2023-07-08T00:30:20.969Z,50.28
2023-07-08T00:31:20.958Z,50.09
2023-07-08T00:32:20.878Z,50.38
2023-07-08T00:33:20.841Z,50.09
2023-07-08T00:34:20.766Z,50.18
2023-07-08T00:35:20.666Z,49.99
2023-07-08T00:36:20.671Z,50.28
2023-07-08T00:37:20.556Z,50.38
2023-07-08T00:38:20.484Z,50.16
2023-07-08T00:39:20.413Z,50.28
2023-07-08T00:40:20.366Z,50.28
2023-07-08T00:41:20.306Z,50.18
2023-07-08T00:42:20.289Z,50.09
2023-07-08T00:43:20.205Z,50.28
2023-07-08T00:44:20.122Z,50.26
2023-07-08T00:45:20.054Z,49.99
2023-07-08T00:46:20.076Z,50.18
2023-07-08T00:47:19.975Z,50.09
2023-07-08T00:48:19.872Z,49.99
2023-07-08T00:49:19.851Z,50.38
2023-07-08T00:50:19.751Z,50.28
2023-07-08T00:51:19.701Z,50.18
2023-07-08T00:52:19.641Z,50.07
2023-07-08T00:53:19.588Z,50.16
2023-07-08T00:54:19.538Z,49.97
2023-07-08T00:55:19.459Z,49.97
2023-07-08T00:56:19.408Z,50.26
2023-07-08T00:57:19.344Z,50.07
2023-07-08T00:58:19.289Z,50.16
2023-07-08T00:59:19.216Z,50.16
2023-07-08T01:00:19.176Z,50.16
2023-07-08T01:01:19.108Z,50.26
2023-07-08T01:02:19.047Z,50.28
2023-07-08T01:03:19.053Z,50.26
2023-07-08T01:04:18.960Z,50.35
2023-07-08T01:05:18.856Z,50.16
2023-07-08T01:06:18.796Z,50.26
2023-07-08T01:07:18.790Z,50.16
2023-07-08T01:08:18.758Z,50.26
2023-07-08T01:09:18.615Z,50.45
2023-07-08T01:10:18.544Z,50.26
2023-07-08T01:11:18.501Z,50.35
2023-07-08T01:12:18.507Z,50.35
2023-07-08T01:13:18.383Z,50.35
2023-07-08T01:14:18.314Z,50.26
2023-07-08T01:15:18.254Z,50.26
2023-07-08T01:16:18.207Z,50.16
2023-07-08T01:17:18.124Z,50.26
2023-07-08T01:18:18.106Z,50.35
2023-07-08T01:19:17.993Z,50.35
2023-07-08T01:20:17.935Z,50.26
2023-07-08T01:21:17.882Z,50.26
2023-07-08T01:22:17.821Z,50.35
2023-07-08T01:23:17.756Z,50.26
2023-07-08T01:24:17.725Z,50.45
2023-07-08T01:25:17.639Z,50.45
2023-07-08T01:26:17.593Z,50.26
2023-07-08T01:27:17.520Z,50.16
2023-07-08T01:28:17.455Z,50.26
2023-07-08T01:29:17.404Z,50.16
2023-07-08T01:30:17.365Z,50.16
2023-07-08T01:31:17.305Z,50.23
2023-07-08T01:32:17.244Z,50.26
2023-07-08T01:33:17.154Z,50.07
2023-07-08T01:34:17.117Z,50.16
2023-07-08T01:35:17.035Z,50.13
2023-07-08T01:36:16.996Z,50.13
2023-07-08T01:37:16.904Z,50.04
2023-07-08T01:38:16.848Z,49.85
2023-07-08T01:39:16.793Z,50.13
2023-07-08T01:40:16.731Z,50.13
2023-07-08T01:41:16.755Z,50.04
2023-07-08T01:42:16.588Z,50.04
2023-07-08T01:43:16.528Z,50.04
2023-07-08T01:44:16.487Z,50.04
2023-07-08T01:45:16.436Z,50.13
2023-07-08T01:46:16.382Z,50.13
2023-07-08T01:47:16.309Z,50.13
2023-07-08T01:48:16.268Z,50.04
2023-07-08T01:49:16.170Z,50.23
2023-07-08T01:50:16.108Z,49.85
2023-07-08T01:51:16.085Z,50.04
2023-07-08T01:52:15.987Z,50.23
2023-07-08T01:53:15.946Z,50.33
2023-07-08T01:54:15.880Z,50.33
2023-07-08T01:55:15.810Z,50.33
2023-07-08T01:56:15.735Z,50.33
2023-07-08T01:57:15.689Z,50.04
2023-07-08T01:58:15.636Z,49.85
2023-07-08T01:59:15.592Z,50.13
2023-07-08T02:00:15.497Z,50.04
2023-07-08T02:01:15.447Z,50.04
2023-07-08T02:02:15.398Z,50.13
2023-07-08T02:03:15.327Z,50.13
2023-07-08T02:04:15.247Z,50.04
2023-07-08T02:05:15.272Z,49.95
2023-07-08T02:06:15.155Z,49.85
2023-07-08T02:07:15.089Z,50.13
2023-07-08T02:08:15.040Z,50.23
2023-07-08T02:09:14.959Z,50.23
2023-07-08T02:10:14.886Z,50.33
2023-07-08T02:11:14.822Z,50.13
2023-07-08T02:12:14.789Z,50.23
2023-07-08T02:13:14.736Z,50.04
2023-07-08T02:14:14.709Z,50.04
2023-07-08T02:15:14.649Z,50.23
2023-07-08T02:16:14.584Z,50.21
2023-07-08T02:17:14.465Z,50.13
2023-07-08T02:18:14.399Z,50.01
2023-07-08T02:19:14.358Z,50.13
2023-07-08T02:20:14.266Z,50.11
2023-07-08T02:21:14.219Z,50.21
2023-07-08T02:22:14.173Z,50.21
2023-07-08T02:23:14.114Z,50.21
2023-07-08T02:24:14.062Z,50.31
2023-07-08T02:25:14.001Z,50.01
2023-07-08T02:26:13.901Z,50.01
2023-07-08T02:27:13.862Z,50.11
2023-07-08T02:28:13.809Z,49.92
2023-07-08T02:29:13.756Z,50.21
2023-07-08T02:30:13.667Z,50.31
2023-07-08T02:31:13.646Z,50.40
2023-07-08T02:32:13.588Z,50.31
2023-07-08T02:33:13.481Z,49.92
2023-07-08T02:34:13.445Z,50.40
2023-07-08T02:35:13.407Z,50.11
2023-07-08T02:36:13.291Z,49.92
2023-07-08T02:37:13.280Z,49.92
2023-07-08T02:38:13.232Z,50.21
2023-07-08T02:39:13.150Z,50.11
2023-07-08T02:40:13.061Z,50.11
2023-07-08T02:41:13.016Z,50.21
2023-07-08T02:42:12.980Z,50.01
2023-07-08T02:43:12.928Z,50.11
2023-07-08T02:44:12.820Z,50.11
2023-07-08T02:45:12.787Z,49.92
2023-07-08T02:46:12.721Z,50.40
2023-07-08T02:47:12.714Z,50.31
2023-07-08T02:48:12.626Z,50.21
2023-07-08T02:49:12.512Z,50.21
2023-07-08T02:50:12.501Z,50.01
2023-07-08T02:51:12.397Z,50.47
2023-07-08T02:52:12.333Z,50.38
2023-07-08T02:53:12.263Z,50.50
2023-07-08T02:54:12.203Z,50.50
2023-07-08T02:55:12.158Z,50.31
2023-07-08T02:56:12.105Z,50.28
2023-07-08T02:57:12.019Z,50.50
2023-07-08T02:58:11.997Z,50.50
2023-07-08T02:59:11.904Z,50.50
2023-07-08T03:00:11.851Z,50.40
2023-07-08T03:01:11.809Z,50.40
2023-07-08T03:02:11.707Z,49.92
2023-07-08T03:03:11.745Z,50.21
2023-07-08T03:04:11.608Z,50.31
2023-07-08T03:05:11.621Z,50.11
2023-07-08T03:06:11.487Z,50.01
2023-07-08T03:07:11.440Z,50.31
2023-07-08T03:08:11.334Z,50.11
2023-07-08T03:09:11.315Z,50.31
2023-07-08T03:10:11.271Z,50.31
2023-07-08T03:11:11.178Z,50.01
2023-07-08T03:12:11.118Z,50.01
2023-07-08T03:13:11.077Z,50.01
2023-07-08T03:14:11.087Z,50.01
2023-07-08T03:15:10.941Z,50.01
2023-07-08T03:16:10.860Z,49.92
2023-07-08T03:17:10.871Z,50.11
2023-07-08T03:18:10.749Z,50.01
2023-07-08T03:19:10.696Z,50.21
2023-07-08T03:20:10.651Z,49.92
2023-07-08T03:21:10.622Z,50.31
2023-07-08T03:22:10.505Z,50.01
2023-07-08T03:23:10.433Z,50.21
2023-07-08T03:24:10.379Z,50.31
2023-07-08T03:25:10.385Z,50.21
2023-07-08T03:26:10.247Z,50.21
2023-07-08T03:27:10.214Z,50.31
2023-07-08T03:28:10.142Z,49.82
2023-07-08T03:29:10.107Z,50.21
2023-07-08T03:30:10.044Z,50.01
2023-07-08T03:31:10.003Z,49.92
2023-07-08T03:32:09.919Z,50.01
2023-07-08T03:33:09.830Z,49.92
2023-07-08T03:34:09.761Z,50.01
2023-07-08T03:35:09.711Z,50.21
2023-07-08T03:36:09.623Z,50.21
2023-07-08T03:37:09.570Z,50.21
2023-07-08T03:38:09.516Z,50.11
2023-07-08T03:39:09.447Z,50.21
2023-07-08T03:40:09.396Z,50.31
2023-07-08T03:41:09.380Z,50.11
2023-07-08T03:42:09.262Z,50.21
2023-07-08T03:43:09.277Z,50.21
2023-07-08T03:44:09.136Z,50.01
2023-07-08T03:45:09.092Z,50.01
2023-07-08T03:46:09.064Z,49.82
2023-07-08T03:47:08.964Z,49.82
2023-07-08T03:48:08.894Z,50.21
2023-07-08T03:49:08.870Z,50.01
2023-07-08T03:50:08.777Z,50.01
2023-07-08T03:51:08.712Z,49.92
2023-07-08T03:52:08.686Z,49.82
2023-07-08T03:53:08.653Z,50.01
2023-07-08T03:54:08.539Z,50.01
2023-07-08T03:55:08.493Z,50.11
2023-07-08T03:56:08.417Z,50.01
2023-07-08T03:57:08.394Z,49.92
2023-07-08T03:58:08.284Z,50.11
2023-07-08T03:59:08.261Z,49.92
2023-07-08T04:00:08.170Z,50.21
2023-07-08T04:01:08.134Z,50.40
2023-07-08T04:02:08.068Z,50.21
2023-07-08T04:03:08.045Z,50.11
2023-07-08T04:04:07.947Z,50.21
2023-07-08T04:05:07.874Z,50.40
2023-07-08T04:06:07.822Z,50.21
2023-07-08T04:07:07.758Z,50.11
2023-07-08T04:08:07.677Z,50.01
2023-07-08T04:09:07.613Z,50.11
2023-07-08T04:10:07.555Z,49.92
2023-07-08T04:11:07.535Z,50.01
2023-07-08T04:12:07.493Z,50.01
2023-07-08T04:13:07.381Z,50.21
2023-07-08T04:14:07.403Z,50.11
2023-07-08T04:15:07.248Z,50.31
2023-07-08T04:16:07.232Z,50.21
2023-07-08T04:17:07.134Z,50.21
2023-07-08T04:18:07.096Z,50.33
2023-07-08T04:19:07.017Z,50.31
2023-07-08T04:20:06.958Z,50.33
2023-07-08T04:22:06.835Z,50.43
2023-07-08T04:23:06.751Z,50.04
2023-07-08T04:24:06.713Z,49.95
2023-07-08T04:25:06.666Z,50.13
2023-07-08T04:26:06.670Z,49.95
2023-07-08T04:27:06.579Z,50.13
2023-07-08T04:28:06.463Z,49.95
2023-07-08T04:29:06.463Z,49.95
2023-07-08T04:30:06.366Z,50.13
2023-07-08T04:31:06.384Z,49.95
2023-07-08T04:32:06.213Z,50.04
2023-07-08T04:33:06.189Z,50.13
2023-07-08T04:34:06.103Z,50.23
2023-07-08T04:35:06.033Z,50.13
2023-07-08T04:36:05.971Z,50.33
2023-07-08T04:37:05.931Z,50.04
2023-07-08T04:38:05.871Z,50.23
2023-07-08T04:39:05.836Z,50.23
2023-07-08T04:40:05.737Z,50.04
2023-07-08T04:41:05.702Z,49.85
2023-07-08T04:42:05.610Z,49.85
2023-07-08T04:43:05.611Z,49.95
2023-07-08T04:44:05.465Z,49.77
2023-07-08T04:45:05.442Z,49.49
2023-07-08T04:46:05.428Z,49.49
2023-07-08T04:47:05.297Z,49.37
2023-07-08T04:48:05.322Z,49.29
2023-07-08T04:49:05.194Z,49.68
2023-07-08T04:50:05.115Z,49.77
2023-07-08T04:51:05.086Z,49.68
2023-07-08T04:52:05.005Z,49.77
2023-07-08T04:53:04.958Z,49.68
2023-07-08T04:54:04.888Z,49.68
2023-07-08T04:55:04.801Z,49.80
2023-07-08T04:56:04.758Z,49.41
2023-07-08T04:57:04.684Z,49.60
2023-07-08T04:58:04.806Z,49.51
2023-07-08T04:59:04.659Z,49.32
2023-07-08T05:00:04.509Z,49.32
2023-07-08T05:01:04.460Z,49.32
2023-07-08T05:02:04.481Z,49.32
2023-07-08T05:03:04.374Z,49.51
2023-07-08T05:04:04.355Z,49.34
2023-07-08T05:05:04.239Z,49.44
2023-07-08T05:06:04.179Z,49.34
2023-07-08T05:07:04.109Z,49.24
2023-07-08T05:08:04.019Z,49.54
2023-07-08T05:09:03.989Z,49.34
2023-07-08T05:10:03.904Z,49.34
2023-07-08T05:11:03.872Z,49.44
2023-07-08T05:12:03.801Z,49.24
2023-07-08T05:13:03.724Z,49.27
2023-07-08T05:14:03.733Z,49.17
2023-07-08T05:15:05.070Z,48.97
2023-07-08T05:16:03.567Z,48.79
2023-07-08T05:17:03.480Z,49.07
2023-07-08T05:18:03.513Z,49.07
2023-07-08T05:19:03.387Z,49.10
2023-07-08T05:20:03.307Z,48.90
2023-07-08T05:21:03.239Z,49.19
2023-07-08T05:22:03.195Z,49.10
2023-07-08T05:23:03.134Z,49.10
2023-07-08T05:24:03.080Z,48.81
2023-07-08T05:25:03.013Z,48.81
2023-07-08T05:26:02.961Z,48.71
2023-07-08T05:27:02.881Z,48.93
2023-07-08T05:28:02.816Z,48.93
2023-07-08T05:29:02.793Z,48.83
2023-07-08T05:30:02.734Z,48.64
2023-07-08T05:31:02.876Z,48.83
2023-07-08T05:32:02.617Z,48.35
2023-07-08T05:33:02.610Z,48.47
2023-07-08T05:34:02.488Z,48.57
2023-07-08T05:35:02.405Z,48.57
2023-07-08T05:36:02.349Z,48.27
2023-07-08T05:37:02.289Z,48.69
2023-07-08T05:38:02.236Z,48.78
2023-07-08T05:39:02.187Z,48.69
2023-07-08T05:40:02.121Z,48.59
2023-07-08T05:41:02.377Z,47.81
2023-07-08T05:42:02.015Z,48.13
2023-07-08T05:43:01.940Z,47.93
2023-07-08T05:44:01.866Z,47.93
2023-07-08T05:45:01.872Z,47.96
2023-07-08T05:46:09.950Z,48.15
2023-07-08T05:47:01.810Z,47.86
2023-07-08T05:48:01.701Z,47.76
2023-07-08T05:49:02.265Z,47.69
2023-07-08T05:50:01.533Z,47.69
2023-07-08T05:51:01.850Z,47.40
2023-07-08T05:52:01.387Z,47.52
2023-07-08T05:53:01.325Z,47.23
2023-07-08T05:54:01.265Z,47.52
2023-07-08T05:55:01.213Z,47.42
2023-07-08T05:56:01.228Z,47.61
2023-07-08T05:57:01.131Z,47.34
2023-07-08T05:58:01.018Z,47.74
2023-07-08T05:59:00.978Z,47.74
2023-07-08T06:00:00.917Z,47.64
2023-07-08T06:01:01.272Z,47.15
2023-07-08T06:02:00.850Z,47.27
2023-07-08T06:03:00.816Z,47.08
2023-07-08T06:04:00.804Z,47.27
2023-07-08T06:05:00.673Z,47.30
2023-07-08T06:06:00.601Z,47.00
2023-07-08T06:07:00.527Z,47.20
2023-07-08T06:08:00.452Z,47.52
2023-07-08T06:09:00.421Z,47.61
2023-07-08T06:10:00.350Z,47.32
2023-07-08T06:11:00.569Z,47.05
2023-07-08T06:12:00.219Z,46.95
2023-07-08T06:13:00.187Z,46.47
2023-07-08T06:14:00.138Z,46.69
2023-07-08T06:15:00.051Z,46.69
2023-07-08T06:16:00.032Z,46.70
2023-07-08T06:17:00.000Z,46.31
2023-07-08T06:17:59.952Z,46.22
2023-07-08T06:18:59.817Z,45.95
2023-07-08T06:19:59.780Z,46.14
2023-07-08T06:21:00.009Z,46.17
2023-07-08T06:22:19.634Z,46.46
2023-07-08T06:22:59.580Z,46.66
2023-07-08T06:23:59.532Z,46.26
2023-07-08T06:24:59.486Z,46.00
2023-07-08T06:25:59.431Z,45.90
2023-07-08T06:26:59.884Z,46.01
2023-07-08T06:27:59.346Z,45.82
2023-07-08T06:28:59.292Z,45.43
2023-07-08T06:29:59.185Z,45.65
2023-07-08T06:30:59.351Z,45.94
2023-07-08T06:31:59.154Z,45.86
2023-07-08T06:33:01.350Z,45.86
2023-07-08T06:33:59.034Z,45.59
2023-07-08T06:34:59.018Z,45.98
2023-07-08T06:35:58.864Z,45.81
2023-07-08T06:36:58.800Z,45.93
2023-07-08T06:37:58.742Z,45.54
2023-07-08T06:38:58.674Z,45.76
2023-07-08T06:39:58.642Z,45.59
2023-07-08T06:40:58.889Z,45.59
2023-07-08T06:41:58.558Z,45.31
2023-07-08T06:42:58.476Z,45.51
2023-07-08T06:43:58.408Z,45.43
2023-07-08T06:44:58.342Z,45.36
2023-07-08T06:45:58.357Z,45.16
2023-07-08T06:46:58.272Z,45.18
2023-07-08T06:47:58.358Z,45.09
2023-07-08T06:48:58.139Z,45.20
2023-07-08T06:49:59.655Z,44.83
2023-07-08T06:50:58.340Z,44.95
2023-07-08T06:51:58.025Z,45.37
2023-07-08T06:52:57.914Z,45.17
2023-07-08T06:53:57.870Z,45.09
2023-07-08T06:54:57.808Z,45.12
2023-07-08T06:55:57.779Z,44.94
2023-07-08T06:56:57.819Z,44.55
2023-07-08T06:57:57.645Z,44.76
2023-07-08T06:58:57.614Z,44.69
2023-07-08T06:59:57.543Z,44.71
2023-07-08T07:00:57.599Z,44.71
2023-07-08T07:01:57.509Z,43.94
2023-07-08T07:02:57.428Z,44.06
2023-07-08T07:03:57.365Z,43.88
2023-07-08T07:04:57.277Z,43.61
2023-07-08T07:05:57.251Z,43.73
2023-07-08T07:06:57.171Z,43.26
2023-07-08T07:07:57.115Z,42.98
2023-07-08T07:08:57.103Z,43.00
2023-07-08T07:09:57.018Z,42.82
2023-07-08T07:10:56.974Z,42.94
2023-07-08T07:11:56.931Z,43.16
2023-07-08T07:12:56.852Z,42.47
2023-07-08T07:13:56.896Z,42.39
2023-07-08T07:14:56.764Z,42.21
2023-07-08T07:15:56.786Z,42.33
2023-07-08T07:17:07.521Z,42.35
2023-07-08T07:17:56.707Z,42.37
2023-07-08T07:18:56.543Z,42.09
2023-07-08T07:19:56.532Z,42.19
2023-07-08T07:20:56.428Z,41.71
2023-07-08T07:21:56.462Z,41.93
2023-07-08T07:22:56.416Z,41.55
2023-07-08T07:23:56.278Z,41.28
2023-07-08T07:24:56.250Z,41.08
2023-07-08T07:25:56.213Z,41.19
2023-07-08T07:26:56.137Z,41.19
2023-07-08T07:27:56.088Z,41.31
2023-07-08T07:28:56.043Z,41.24
2023-07-08T07:29:56.102Z,41.14
2023-07-08T07:30:55.998Z,40.95
2023-07-08T07:31:55.960Z,41.05
2023-07-08T07:32:55.913Z,41.27
2023-07-08T07:33:55.806Z,40.58
2023-07-08T07:34:55.755Z,40.80
2023-07-08T07:35:55.700Z,40.81
2023-07-08T07:36:58.179Z,40.91
2023-07-08T07:37:55.595Z,40.43
2023-07-08T07:38:55.642Z,40.13
2023-07-08T07:39:55.479Z,40.75
2023-07-08T07:40:55.507Z,40.37
2023-07-08T07:41:55.379Z,40.17
2023-07-08T07:42:55.380Z,40.31
2023-07-08T07:43:55.277Z,40.11
2023-07-08T07:44:55.230Z,39.73
2023-07-08T07:45:55.178Z,39.53
2023-07-08T07:46:55.202Z,39.54
2023-07-08T07:47:55.106Z,39.36
2023-07-08T07:48:55.053Z,39.16
2023-07-08T07:49:54.992Z,39.18
2023-07-08T07:50:54.959Z,39.10
2023-07-08T07:51:54.889Z,38.90
2023-07-08T07:52:54.873Z,39.01
2023-07-08T07:53:54.795Z,38.83
2023-07-08T07:54:54.748Z,38.43
2023-07-08T07:55:54.724Z,38.62
2023-07-08T07:56:54.695Z,38.92
2023-07-08T07:57:54.614Z,39.00
2023-07-08T07:58:54.545Z,38.96
2023-07-08T07:59:54.538Z,39.32
2023-07-08T08:00:54.496Z,39.49
2023-07-08T08:01:54.482Z,40.25
2023-07-08T08:02:54.378Z,40.63
2023-07-08T08:03:54.437Z,40.99
2023-07-08T08:04:54.274Z,41.46
2023-07-08T08:05:54.192Z,41.82
2023-07-08T08:06:54.175Z,42.10
2023-07-08T08:07:54.144Z,42.45
2023-07-08T08:08:54.049Z,42.43
2023-07-08T08:09:53.993Z,43.19
2023-07-08T08:10:53.958Z,43.37
2023-07-08T08:11:53.989Z,43.52
2023-07-08T08:12:54.424Z,43.90
2023-07-08T08:13:53.838Z,44.45
2023-07-08T08:14:53.738Z,44.65
2023-07-08T08:15:53.682Z,44.60
2023-07-08T08:16:53.721Z,45.48
2023-07-08T08:17:53.902Z,45.56
2023-07-08T08:18:53.595Z,45.53
2023-07-08T08:19:53.522Z,45.81
2023-07-08T08:20:53.419Z,45.89
2023-07-08T08:21:53.378Z,46.28
2023-07-08T08:22:53.333Z,46.16
2023-07-08T08:23:53.266Z,46.45
2023-07-08T08:24:53.222Z,45.94
2023-07-08T08:25:53.260Z,46.33
2023-07-08T08:26:53.167Z,46.04
2023-07-08T08:27:53.053Z,45.86
2023-07-08T08:28:53.003Z,45.67
2023-07-08T08:29:52.957Z,45.76
2023-07-08T08:30:52.912Z,45.47
2023-07-08T08:31:52.870Z,45.27
2023-07-08T08:32:52.803Z,45.47
2023-07-08T08:33:52.777Z,45.45
2023-07-08T08:34:52.737Z,45.64
2023-07-08T08:35:52.728Z,45.54
2023-07-08T08:36:52.698Z,45.45
2023-07-08T08:37:52.588Z,45.52
2023-07-08T08:38:52.569Z,45.52
2023-07-08T08:39:52.412Z,45.62
2023-07-08T08:40:52.353Z,45.62
2023-07-08T08:41:52.325Z,45.82
2023-07-08T08:42:52.265Z,45.62
2023-07-08T08:43:52.757Z,45.62
2023-07-08T08:44:52.142Z,45.52
2023-07-08T08:45:52.094Z,45.42
2023-07-08T08:46:52.172Z,45.60
2023-07-08T08:47:52.056Z,45.50
2023-07-08T08:48:51.941Z,45.50
2023-07-08T08:49:51.882Z,45.50
2023-07-08T08:50:51.908Z,45.67
2023-07-08T08:51:51.788Z,45.57
2023-07-08T08:52:51.716Z,45.57
2023-07-08T08:53:51.685Z,45.67
2023-07-08T08:54:51.597Z,45.56
2023-07-08T08:55:51.556Z,45.85
2023-07-08T08:56:51.513Z,45.85
2023-07-08T08:57:51.445Z,45.65
2023-07-08T08:58:51.399Z,46.03
2023-07-08T08:59:51.377Z,46.32
2023-07-08T09:00:51.326Z,46.03
2023-07-08T09:01:51.277Z,46.03
2023-07-08T09:02:51.200Z,46.10
2023-07-08T09:03:51.190Z,46.00
2023-07-08T09:04:51.070Z,46.20
2023-07-08T09:05:51.033Z,46.20
2023-07-08T09:06:53.777Z,46.28
2023-07-08T09:07:50.945Z,46.28
2023-07-08T09:08:50.861Z,45.88
2023-07-08T09:09:50.806Z,45.88
2023-07-08T09:10:50.773Z,46.47
2023-07-08T09:11:50.732Z,46.37
2023-07-08T09:12:50.702Z,46.08
2023-07-08T09:13:50.806Z,46.18
2023-07-08T09:14:50.571Z,46.25
2023-07-08T09:15:50.496Z,46.37
2023-07-08T09:16:50.536Z,46.15
2023-07-08T09:17:50.457Z,46.25
2023-07-08T09:18:50.315Z,45.96
2023-07-08T09:19:50.283Z,45.96
2023-07-08T09:20:50.229Z,46.25
2023-07-08T09:21:50.157Z,46.06
2023-07-08T09:22:50.146Z,46.15
2023-07-08T09:23:50.049Z,46.28
2023-07-08T09:24:49.995Z,46.08
2023-07-08T09:25:49.940Z,45.88
2023-07-08T09:26:49.943Z,45.88
2023-07-08T09:27:49.904Z,46.28
2023-07-08T09:28:49.818Z,46.18
2023-07-08T09:29:49.750Z,45.88
2023-07-08T09:30:49.713Z,46.37
2023-07-08T09:31:49.732Z,45.88
2023-07-08T09:32:49.627Z,46.28
2023-07-08T09:33:49.601Z,45.88
2023-07-08T09:34:49.508Z,46.28
2023-07-08T09:35:49.622Z,46.08
2023-07-08T09:36:49.358Z,46.08
2023-07-08T09:37:49.488Z,46.18
2023-07-08T09:38:49.872Z,46.18
2023-07-08T09:39:49.191Z,46.18
2023-07-08T09:40:49.118Z,46.08
2023-07-08T09:41:49.068Z,46.28
2023-07-08T09:42:49.139Z,46.18
2023-07-08T09:43:48.954Z,46.18
2023-07-08T09:44:48.918Z,46.18
2023-07-08T09:45:49.023Z,46.18
2023-07-08T09:46:49.008Z,46.30
2023-07-08T09:47:48.889Z,46.00
2023-07-08T09:48:48.736Z,46.00
2023-07-08T09:49:48.622Z,46.10
2023-07-08T09:50:48.582Z,46.00
2023-07-08T09:51:48.528Z,46.30
2023-07-08T09:52:48.518Z,46.20
2023-07-08T09:53:48.414Z,46.10
2023-07-08T09:54:48.366Z,46.00
2023-07-08T09:55:48.399Z,46.08
2023-07-08T09:56:48.291Z,45.98
2023-07-08T09:57:48.212Z,46.08
2023-07-08T09:58:48.141Z,46.00
2023-07-08T09:59:48.100Z,45.88
2023-07-08T10:00:48.029Z,45.98
2023-07-08T10:01:48.026Z,45.98
2023-07-08T10:02:47.957Z,45.98
2023-07-08T10:03:47.922Z,45.98
2023-07-08T10:04:47.826Z,46.08
2023-07-08T10:05:47.772Z,45.98
2023-07-08T10:06:47.752Z,46.08
2023-07-08T10:07:47.677Z,46.20
2023-07-08T10:08:47.627Z,45.88
2023-07-08T10:09:47.557Z,46.00
2023-07-08T10:10:47.559Z,45.88
2023-07-08T10:11:47.488Z,46.08
2023-07-08T10:12:47.423Z,45.98
2023-07-08T10:13:51.030Z,46.08
2023-07-08T10:14:47.315Z,45.88
2023-07-08T10:15:47.246Z,45.98
2023-07-08T10:16:47.371Z,46.08
2023-07-08T10:17:47.137Z,45.88
2023-07-08T10:18:47.063Z,45.88
2023-07-08T10:19:47.017Z,46.10
2023-07-08T10:20:46.956Z,46.10
2023-07-08T10:21:46.908Z,45.88
2023-07-08T10:22:46.870Z,45.88
2023-07-08T10:23:46.821Z,45.98
2023-07-08T10:24:48.927Z,45.98
2023-07-08T10:25:46.701Z,46.18
2023-07-08T10:26:46.620Z,45.90
2023-07-08T10:27:46.590Z,45.88
2023-07-08T10:28:46.524Z,45.88
2023-07-08T10:29:46.497Z,45.88
2023-07-08T10:30:46.540Z,46.20
2023-07-08T10:31:46.418Z,45.90
2023-07-08T10:32:46.394Z,46.30
2023-07-08T10:33:46.258Z,46.00
2023-07-08T10:34:46.199Z,46.10
2023-07-08T10:35:46.144Z,46.10
2023-07-08T10:36:46.128Z,46.12
2023-07-08T10:37:46.014Z,46.25
2023-07-08T10:38:45.974Z,45.97
2023-07-08T10:39:45.926Z,45.60
2023-07-08T10:40:45.884Z,45.13
2023-07-08T10:41:45.856Z,45.25
2023-07-08T10:42:45.767Z,45.07
2023-07-08T10:43:45.702Z,44.58
2023-07-08T10:44:45.666Z,44.60
2023-07-08T10:45:45.658Z,44.01
2023-07-08T10:46:45.580Z,44.23
2023-07-08T10:47:45.538Z,43.83
2023-07-08T10:48:45.466Z,44.02
2023-07-08T10:49:45.412Z,43.75
2023-07-08T10:50:45.325Z,43.65
2023-07-08T10:51:45.276Z,43.77
2023-07-08T10:52:45.225Z,43.67
2023-07-08T10:53:45.181Z,43.67
2023-07-08T10:54:45.189Z,44.29
2023-07-08T10:55:45.088Z,44.29
2023-07-08T10:56:45.034Z,44.51
2023-07-08T10:57:44.986Z,44.51
2023-07-08T10:58:44.922Z,44.04
2023-07-08T10:59:44.888Z,44.06
2023-07-08T11:00:44.874Z,44.49
2023-07-08T11:01:44.907Z,44.42
2023-07-08T11:02:44.832Z,44.48
2023-07-08T11:03:44.775Z,44.15
2023-07-08T11:04:44.613Z,43.59
2023-07-08T11:05:44.553Z,43.15
2023-07-08T11:06:44.494Z,43.49
2023-07-08T11:07:44.454Z,42.55
2023-07-08T11:08:44.411Z,42.41
2023-07-08T11:09:44.426Z,42.18
2023-07-08T11:10:44.317Z,41.85
2023-07-08T11:11:44.298Z,40.99
2023-07-08T11:12:44.227Z,40.76
2023-07-08T11:13:44.227Z,39.91
2023-07-08T11:14:44.136Z,39.66
2023-07-08T11:15:44.162Z,39.01
2023-07-08T11:16:44.115Z,39.04
2023-07-08T11:17:44.074Z,38.39
2023-07-08T11:18:44.084Z,38.34
2023-07-08T11:19:43.894Z,37.46
2023-07-08T11:20:43.866Z,37.62
2023-07-08T11:21:46.371Z,37.45
2023-07-08T11:22:43.765Z,37.19
2023-07-08T11:23:43.785Z,37.23
2023-07-08T11:24:43.755Z,36.75
2023-07-08T11:25:43.803Z,36.58
2023-07-08T11:26:43.694Z,37.13
2023-07-08T11:27:43.602Z,36.44
2023-07-08T11:28:43.572Z,36.27
2023-07-08T11:29:43.471Z,36.20
2023-07-08T11:30:43.414Z,35.81
2023-07-08T11:31:43.430Z,36.03
2023-07-08T11:32:43.394Z,35.75
2023-07-08T11:33:43.305Z,35.67
2023-07-08T11:34:43.318Z,35.60
2023-07-08T11:35:43.201Z,35.60
2023-07-08T11:36:43.182Z,34.89
2023-07-08T11:37:43.251Z,35.13
2023-07-08T11:38:43.194Z,35.13
2023-07-08T11:39:43.086Z,35.04
2023-07-08T11:40:43.021Z,35.14
2023-07-08T11:41:43.060Z,35.06
2023-07-08T11:42:43.310Z,35.06
2023-07-08T11:43:42.909Z,35.08
2023-07-08T11:44:42.896Z,35.08
2023-07-08T11:45:42.829Z,34.99
2023-07-08T11:46:42.771Z,35.11
2023-07-08T11:47:42.797Z,35.11
2023-07-08T11:48:42.782Z,35.00
2023-07-08T11:49:44.086Z,35.11
2023-07-08T11:50:42.621Z,35.21
2023-07-08T11:51:42.583Z,35.21
2023-07-08T11:52:42.535Z,35.11
2023-07-08T11:53:42.520Z,35.11
2023-07-08T11:54:42.476Z,35.13
2023-07-08T11:55:42.427Z,35.11
2023-07-08T11:56:42.430Z,35.23
2023-07-08T11:57:42.382Z,35.14
2023-07-08T11:58:42.331Z,35.03
2023-07-08T11:59:42.273Z,35.14
2023-07-08T12:00:42.289Z,35.24
2023-07-08T12:01:42.253Z,35.03
2023-07-08T12:02:42.211Z,35.16
2023-07-08T12:03:42.210Z,35.16
2023-07-08T12:04:42.069Z,35.26
2023-07-08T12:05:42.035Z,35.26
2023-07-08T12:06:42.089Z,35.26
2023-07-08T12:07:41.975Z,35.16
2023-07-08T12:08:41.949Z,35.28
2023-07-08T12:09:41.868Z,34.98
2023-07-08T12:10:41.841Z,34.88
2023-07-08T12:11:41.819Z,34.67
2023-07-08T12:12:41.787Z,34.88
2023-07-08T12:13:41.773Z,34.88
2023-07-08T12:14:41.674Z,34.98
2023-07-08T12:15:41.662Z,34.76
2023-07-08T12:16:41.619Z,34.56
2023-07-08T12:17:41.645Z,34.36
2023-07-08T12:18:41.548Z,34.67
2023-07-08T12:19:41.479Z,34.48
2023-07-08T12:20:41.484Z,34.58
2023-07-08T12:21:41.488Z,34.27
2023-07-08T12:22:41.353Z,34.38
2023-07-08T12:23:42.771Z,34.06
2023-07-08T12:24:41.621Z,34.08
2023-07-08T12:25:41.278Z,33.97
2023-07-08T12:26:41.276Z,33.97
2023-07-08T12:27:41.248Z,33.87
2023-07-08T12:28:41.119Z,34.28
2023-07-08T12:29:41.164Z,34.20
2023-07-08T12:30:41.099Z,33.78
2023-07-08T12:31:41.072Z,33.58
2023-07-08T12:32:41.102Z,33.58
2023-07-08T12:33:40.960Z,33.59
2023-07-08T12:34:40.951Z,33.48
2023-07-08T12:35:40.849Z,33.48
2023-07-08T12:36:40.812Z,33.38
2023-07-08T12:37:40.768Z,33.90
2023-07-08T12:38:40.714Z,33.80
2023-07-08T12:39:40.713Z,33.80
2023-07-08T12:40:40.631Z,33.90
2023-07-08T12:41:40.627Z,33.47
2023-07-08T12:42:40.564Z,33.47
2023-07-08T12:43:40.523Z,33.45
2023-07-08T12:44:40.491Z,33.76
2023-07-08T12:45:40.448Z,33.35
2023-07-08T12:46:40.438Z,33.35
2023-07-08T12:47:40.422Z,34.06
2023-07-08T12:48:40.317Z,33.44
2023-07-08T12:49:40.286Z,33.86
2023-07-08T12:50:40.240Z,33.44
2023-07-08T12:51:40.221Z,33.44
2023-07-08T12:52:40.174Z,33.75